Time;durP1;ratioP1;P1;durP2;ratioP2;P2;SDS_P1;SDS_P2;PMS_P1;PMS_P2;Temp;Humidity;BMP_temperature;BMP_pressure;BME280_temperature;BME280_humidity;BME280_pressure;Samples;Min_cycle;Max_cycle;Signal;HPM_P1;HPM_P2
2023/12/15 00:00:58;;;;;;;9.77;7.63;;;5.10;99.90;;;;;;4979541;28;20476;-80
2023/12/15 00:03:25;;;;;;;9.50;7.70;;;5.10;99.90;;;;;;4978280;28;20444;-80
2023/12/15 00:05:52;;;;;;;9.03;7.40;;;5.10;99.90;;;;;;4995132;28;20853;-81
2023/12/15 00:08:18;;;;;;;9.33;6.60;;;5.00;99.90;;;;;;4998468;28;20440;-80
2023/12/15 00:10:45;;;;;;;7.70;6.60;;;5.00;99.90;;;;;;4999174;28;20495;-80
2023/12/15 00:13:12;;;;;;;8.23;7.27;;;5.00;99.90;;;;;;4998454;28;20452;-82
2023/12/15 00:15:40;;;;;;;8.17;6.80;;;5.00;99.90;;;;;;5001812;28;20584;-80
2023/12/15 00:18:27;;;;;;;9.30;7.13;;;4.90;99.90;;;;;;4999212;28;20518;-80
2023/12/15 00:28:52;;;;;;;9.33;6.57;;;4.80;99.90;;;;;;5003520;28;20443;-80
2023/12/15 00:31:35;;;;;;;7.00;6.30;;;4.80;99.90;;;;;;5008546;28;20497;-81
2023/12/15 00:34:11;;;;;;;7.60;6.10;;;4.80;99.90;;;;;;5009447;28;20444;-80
2023/12/15 00:36:55;;;;;;;10.87;8.20;;;4.80;99.90;;;;;;5017102;28;20443;-82
2023/12/15 00:45:41;;;;;;;9.80;6.93;;;4.80;99.90;;;;;;5012744;28;20495;-80
2023/12/15 00:48:31;;;;;;;8.83;7.00;;;4.80;99.90;;;;;;5013536;28;20483;-80
2023/12/15 00:51:07;;;;;;;9.60;6.50;;;4.80;99.90;;;;;;5010461;28;20507;-79
2023/12/15 00:53:53;;;;;;;9.17;6.50;;;4.70;99.90;;;;;;5005036;28;20514;-79
2023/12/15 00:56:38;;;;;;;6.70;5.53;;;4.60;99.90;;;;;;5002707;28;20464;-79
2023/12/15 00:59:25;;;;;;;9.70;6.40;;;4.70;99.90;;;;;;5001715;28;20460;-80
2023/12/15 01:02:08;;;;;;;9.47;6.60;;;4.30;99.90;;;;;;5003182;28;20452;-79
2023/12/15 01:04:52;;;;;;;9.10;6.10;;;4.60;99.90;;;;;;5003221;28;20456;-79
2023/12/15 01:07:33;;;;;;;7.50;6.10;;;4.70;99.90;;;;;;5004022;28;20490;-79
2023/12/15 01:10:07;;;;;;;8.10;6.10;;;4.70;99.90;;;;;;5004340;28;20468;-78
2023/12/15 01:12:39;;;;;;;8.90;6.33;;;4.70;99.90;;;;;;5004283;28;20456;-79
2023/12/15 01:15:13;;;;;;;10.00;7.00;;;4.70;99.90;;;;;;5005086;28;20873;-79
2023/12/15 01:17:47;;;;;;;8.20;6.40;;;4.70;99.90;;;;;;5003619;28;20527;-79
2023/12/15 01:20:37;;;;;;;8.20;6.73;;;4.70;99.90;;;;;;5003046;28;20591;-79
2023/12/15 01:23:35;;;;;;;8.13;6.17;;;4.70;99.90;;;;;;5003709;28;20520;-80
2023/12/15 01:26:18;;;;;;;9.03;6.43;;;4.70;99.90;;;;;;5002552;28;20568;-80
2023/12/15 01:29:24;;;;;;;10.17;7.60;;;4.70;99.90;;;;;;5002227;28;20528;-78
2023/12/15 01:35:34;;;;;;;9.40;6.50;;;4.70;99.90;;;;;;5000026;28;20448;-79
2023/12/15 01:38:22;;;;;;;10.90;7.20;;;4.70;99.90;;;;;;5002921;28;20455;-80
2023/12/15 01:41:18;;;;;;;8.20;6.50;;;4.60;99.90;;;;;;5002432;28;20480;-79
2023/12/15 01:47:05;;;;;;;8.03;6.37;;;4.70;99.90;;;;;;4999517;28;20468;-80
2023/12/15 01:50:01;;;;;;;9.17;7.13;;;4.60;99.90;;;;;;4998719;28;20460;-79
2023/12/15 01:52:58;;;;;;;9.37;6.70;;;4.60;99.90;;;;;;4997865;28;20453;-80
2023/12/15 01:56:08;;;;;;;12.87;8.57;;;4.60;99.90;;;;;;4999922;28;20452;-79
2023/12/15 01:59:05;;;;;;;8.37;7.10;;;4.90;99.90;;;;;;4999185;28;20477;-78
2023/12/15 02:01:59;;;;;;;10.30;7.17;;;4.60;99.90;;;;;;4998818;28;20483;-79
2023/12/15 02:04:37;;;;;;;11.17;8.23;;;4.60;99.90;;;;;;4996623;28;20832;-77
2023/12/15 02:07:05;;;;;;;9.57;7.27;;;4.60;99.90;;;;;;4996783;28;20472;-78
2023/12/15 02:09:45;;;;;;;9.20;7.20;;;4.60;99.90;;;;;;4995776;28;20486;-79
2023/12/15 02:12:21;;;;;;;9.20;7.33;;;4.50;99.90;;;;;;4995575;28;20522;-78
2023/12/15 02:15:21;;;;;;;10.23;8.87;;;4.50;99.90;;;;;;4996223;28;20462;-77
2023/12/15 02:18:06;;;;;;;9.20;7.20;;;4.60;99.90;;;;;;4996361;28;20471;-77
2023/12/15 02:23:55;;;;;;;10.37;8.00;;;4.50;99.90;;;;;;4989380;28;20425;-80
2023/12/15 02:29:58;;;;;;;10.23;7.70;;;4.50;99.90;;;;;;4993019;28;20443;-79
2023/12/15 02:36:11;;;;;;;10.07;8.13;;;4.50;99.90;;;;;;4997986;28;20432;-78
2023/12/15 02:39:27;;;;;;;13.63;7.83;;;4.50;99.90;;;;;;4979356;28;20459;-79
2023/12/15 02:42:48;;;;;;;;;;;;;;;;;;;;;
2023/12/15 02:46:07;;;;;;;;;;;;;;;;;;;;;
2023/12/15 02:52:28;;;;;;;7.23;6.50;;;4.50;99.90;;;;;;5003768;28;20495;-79
2023/12/15 02:55:46;;;;;;;9.20;7.70;;;4.50;99.90;;;;;;4963317;28;20479;-80
2023/12/15 03:02:27;;;;;;;;;;;;;;;;;;;;;
2023/12/15 03:05:15;;;;;;;11.17;7.47;;;4.50;99.90;;;;;;4947928;28;20453;-79
2023/12/15 03:08:13;;;;;;;10.13;7.60;;;4.50;99.90;;;;;;4981044;28;20472;-82
2023/12/15 03:11:03;;;;;;;10.83;7.97;;;4.50;99.90;;;;;;4983371;28;20465;-79
2023/12/15 03:16:34;;;;;;;10.13;7.00;;;4.50;99.90;;;;;;4988298;28;20433;-79
2023/12/15 03:19:50;;;;;;;;;;;;;;;;;;;;;
2023/12/15 03:23:10;;;;;;;;;;;;;;;;;;;;;
2023/12/15 03:29:09;;;;;;;8.60;7.00;;;4.80;99.90;;;;;;4985811;28;20452;-80
2023/12/15 03:35:57;;;;;;;7.57;6.77;;;4.70;99.90;;;;;;4990510;28;20441;-80
2023/12/15 03:39:11;;;;;;;8.67;5.60;;;4.70;99.90;;;;;;4992882;28;20536;-80
2023/12/15 03:42:09;;;;;;;8.73;6.47;;;4.70;99.90;;;;;;4988563;28;20555;-80
2023/12/15 03:45:47;;;;;;;8.47;6.00;;;4.70;99.90;;;;;;4990922;28;20528;-78
2023/12/15 03:52:25;;;;;;;7.23;6.63;;;4.70;99.90;;;;;;4987678;28;20457;-81
2023/12/15 03:58:42;;;;;;;8.43;6.30;;;4.70;99.90;;;;;;4983095;28;20973;-78
2023/12/15 04:08:38;;;;;;;6.60;6.00;;;4.50;99.90;;;;;;5058904;28;20520;-79
2023/12/15 04:11:38;;;;;;;9.80;7.23;;;4.80;99.90;;;;;;5019066;28;20493;-78
2023/12/15 04:14:36;;;;;;;7.43;6.70;;;4.80;99.90;;;;;;5037410;28;20455;-79
2023/12/15 04:17:27;;;;;;;8.67;6.87;;;4.80;99.90;;;;;;5035845;28;20448;-79
2023/12/15 04:20:15;;;;;;;7.73;6.43;;;4.80;99.90;;;;;;5036388;28;20970;-79
2023/12/15 04:23:01;;;;;;;7.33;6.60;;;4.40;99.90;;;;;;5038954;28;20476;-79
2023/12/15 04:25:59;;;;;;;;;;;;;;;;;;;;;
2023/12/15 04:38:58;;;;;;;;;;;;;;;;;;;;;
2023/12/15 04:42:16;;;;;;;9.47;6.80;;;4.90;99.90;;;;;;5040808;28;20466;-80
2023/12/15 04:48:15;;;;;;;;;;;;;;;;;;;;;
2023/12/15 04:50:56;;;;;;;8.43;6.60;;;4.90;99.90;;;;;;5038133;28;20486;-80
2023/12/15 04:56:20;;;;;;;7.60;5.97;;;4.90;99.90;;;;;;5042370;28;20419;-79
2023/12/15 04:59:13;;;;;;;7.33;6.50;;;4.90;99.90;;;;;;5041651;28;20518;-78
2023/12/15 05:01:52;;;;;;;8.23;6.80;;;4.90;99.90;;;;;;5045484;28;20445;-79
2023/12/15 05:04:31;;;;;;;6.50;5.90;;;4.90;99.90;;;;;;5039966;28;20442;-79
2023/12/15 05:07:11;;;;;;;7.60;5.90;;;4.90;99.90;;;;;;5044112;28;20478;-80
2023/12/15 05:09:44;;;;;;;7.23;6.53;;;4.90;99.90;;;;;;5042061;28;21037;-82
2023/12/15 05:12:37;;;;;;;7.30;5.87;;;4.80;99.90;;;;;;5044595;28;20453;-78
2023/12/15 05:15:44;;;;;;;7.50;6.40;;;4.90;99.90;;;;;;5043674;28;20466;-79
2023/12/15 05:18:44;;;;;;;6.53;5.83;;;5.00;99.90;;;;;;5037900;28;20431;-79
2023/12/15 05:22:08;;;;;;;9.07;6.00;;;4.80;99.90;;;;;;5034194;28;20525;-80
2023/12/15 05:25:10;;;;;;;6.63;5.93;;;4.80;99.90;;;;;;5036536;28;20463;-79
2023/12/15 05:28:06;;;;;;;6.90;5.57;;;4.80;99.90;;;;;;5034613;28;20477;-82
2023/12/15 05:30:59;;;;;;;7.73;6.10;;;4.80;99.90;;;;;;5033108;28;20478;-82
2023/12/15 05:33:37;;;;;;;11.03;6.43;;;4.90;99.90;;;;;;5028944;28;20492;-79
2023/12/15 05:39:05;;;;;;;7.27;6.57;;;4.90;99.90;;;;;;5023491;28;20435;-81
2023/12/15 05:41:33;;;;;;;8.50;7.50;;;4.90;99.90;;;;;;5029498;28;20829;-81
2023/12/15 05:44:08;;;;;;;8.17;7.13;;;4.90;99.90;;;;;;5021525;28;20501;-80
2023/12/15 05:46:58;;;;;;;7.63;6.93;;;4.90;99.90;;;;;;5021482;28;20543;-82
2023/12/15 05:49:48;;;;;;;8.27;7.37;;;4.90;99.90;;;;;;5024636;28;20462;-79
2023/12/15 05:52:25;;;;;;;9.90;7.90;;;4.60;99.90;;;;;;5018781;28;20458;-81
2023/12/15 05:55:04;;;;;;;9.00;6.93;;;5.00;99.90;;;;;;5022618;28;20451;-79
2023/12/15 05:57:44;;;;;;;9.47;7.30;;;5.00;99.90;;;;;;5021839;28;20451;-78
2023/12/15 06:00:16;;;;;;;8.53;7.50;;;5.00;99.90;;;;;;5021680;28;20467;-81
2023/12/15 06:02:45;;;;;;;10.87;7.77;;;5.00;99.90;;;;;;5024635;28;20460;-78
2023/12/15 06:08:05;;;;;;;7.93;7.13;;;4.90;99.90;;;;;;5016419;28;20535;-78
2023/12/15 06:10:44;;;;;;;8.73;7.83;;;4.90;99.90;;;;;;5028541;28;20474;-81
2023/12/15 06:13:25;;;;;;;10.50;8.50;;;5.00;99.90;;;;;;5025951;28;20451;-80
2023/12/15 06:15:58;;;;;;;10.60;7.43;;;5.00;99.90;;;;;;5026720;28;20459;-79
2023/12/15 06:18:30;;;;;;;8.70;7.60;;;5.00;99.90;;;;;;5025402;28;20455;-80
2023/12/15 06:20:59;;;;;;;9.27;7.47;;;4.70;99.90;;;;;;5025179;28;20482;-78
2023/12/15 06:23:30;;;;;;;10.13;7.60;;;5.00;99.90;;;;;;5020689;28;20542;-79
2023/12/15 06:26:15;;;;;;;10.03;8.10;;;5.00;99.90;;;;;;5019860;28;20434;-79
2023/12/15 06:29:12;;;;;;;8.73;7.83;;;5.00;99.90;;;;;;5019111;28;20497;-78
2023/12/15 06:31:57;;;;;;;11.53;8.37;;;5.00;99.90;;;;;;5020382;28;20460;-79
2023/12/15 06:34:31;;;;;;;13.03;7.30;;;5.00;99.90;;;;;;5017344;28;20455;-81
2023/12/15 06:37:07;;;;;;;10.80;8.83;;;5.10;99.90;;;;;;5017781;28;20450;-80
2023/12/15 06:39:45;;;;;;;9.53;7.73;;;5.10;99.90;;;;;;5019562;28;22160;-79
2023/12/15 06:42:26;;;;;;;11.07;7.93;;;5.10;99.90;;;;;;5022885;28;20463;-80
2023/12/15 06:45:27;;;;;;;8.67;7.63;;;5.20;99.90;;;;;;5025328;28;20497;-80
2023/12/15 06:48:19;;;;;;;8.70;7.60;;;5.20;99.90;;;;;;5024092;28;20479;-80
2023/12/15 06:54:21;;;;;;;8.60;7.70;;;5.20;99.90;;;;;;5026858;28;20443;-80
2023/12/15 06:57:06;;;;;;;9.40;7.50;;;5.10;99.90;;;;;;5029339;28;20444;-79
2023/12/15 07:00:06;;;;;;;7.97;7.17;;;4.80;99.90;;;;;;5028158;28;20440;-82
2023/12/15 07:03:04;;;;;;;12.77;7.63;;;5.10;99.90;;;;;;5026561;28;20468;-79
2023/12/15 07:05:48;;;;;;;10.80;8.17;;;5.10;99.90;;;;;;5023737;28;20464;-79
2023/12/15 07:08:23;;;;;;;8.57;7.70;;;5.10;99.90;;;;;;5032444;28;20534;-80
2023/12/15 07:11:06;;;;;;;9.20;7.70;;;5.10;99.90;;;;;;5032974;28;20478;-80
2023/12/15 07:13:41;;;;;;;8.20;7.40;;;5.30;99.90;;;;;;5029885;28;20474;-79
2023/12/15 07:16:17;;;;;;;11.07;8.33;;;5.10;99.90;;;;;;5020478;28;20481;-80
2023/12/15 07:19:08;;;;;;;9.07;7.90;;;5.10;99.90;;;;;;5020956;28;20512;-79
2023/12/15 07:21:37;;;;;;;8.90;7.80;;;5.10;99.90;;;;;;5020234;28;20903;-80
2023/12/15 07:24:15;;;;;;;10.00;8.20;;;5.10;99.90;;;;;;5021072;28;20455;-81
2023/12/15 07:26:56;;;;;;;9.23;7.73;;;5.10;99.90;;;;;;5021430;28;20480;-80
2023/12/15 07:30:04;;;;;;;10.60;8.40;;;5.10;99.90;;;;;;5020831;28;20448;-80
2023/12/15 07:32:53;;;;;;;9.50;7.77;;;5.10;99.90;;;;;;5019668;28;20501;-82
2023/12/15 07:35:31;;;;;;;11.30;8.50;;;5.20;99.90;;;;;;5018914;28;20968;-82
2023/12/15 07:38:08;;;;;;;8.80;7.90;;;5.20;99.90;;;;;;5023146;28;20530;-79
2023/12/15 07:40:54;;;;;;;12.47;9.50;;;5.20;99.90;;;;;;5017944;28;20494;-81
2023/12/15 07:43:34;;;;;;;10.17;8.07;;;5.20;99.90;;;;;;5019531;28;20465;-80
2023/12/15 07:46:19;;;;;;;;;;;;;;;;;;;;;
2023/12/15 07:48:54;;;;;;;9.60;8.27;;;5.20;99.90;;;;;;5018058;28;20420;-79
2023/12/15 07:51:40;;;;;;;10.20;8.93;;;5.20;99.90;;;;;;5019805;28;20986;-80
2023/12/15 07:54:09;;;;;;;10.50;9.43;;;5.20;99.90;;;;;;5018600;28;20546;-81
2023/12/15 07:56:44;;;;;;;9.47;8.20;;;5.20;99.90;;;;;;5021407;28;20439;-82
2023/12/15 07:59:19;;;;;;;11.40;8.97;;;5.20;99.90;;;;;;5022462;28;20447;-79
2023/12/15 08:02:00;;;;;;;10.30;9.10;;;5.20;99.90;;;;;;5027915;28;20414;-81
2023/12/15 08:04:36;;;;;;;11.33;9.00;;;5.20;99.90;;;;;;5028261;28;20443;-81
2023/12/15 08:07:16;;;;;;;9.10;8.20;;;5.20;99.90;;;;;;5028728;28;20485;-78
2023/12/15 08:09:47;;;;;;;11.60;9.23;;;5.20;99.90;;;;;;5028887;28;20467;-83
2023/12/15 08:12:22;;;;;;;11.63;9.20;;;5.20;99.90;;;;;;5032124;28;20436;-80
2023/12/15 08:14:56;;;;;;;11.80;9.50;;;5.30;99.90;;;;;;5028930;28;20443;-78
2023/12/15 08:17:26;;;;;;;10.00;8.80;;;5.30;99.90;;;;;;5026658;28;20444;-79
2023/12/15 08:19:53;;;;;;;10.30;8.27;;;5.30;99.90;;;;;;5027657;28;20493;-81
2023/12/15 08:22:21;;;;;;;10.97;9.90;;;5.30;99.90;;;;;;5016703;28;20505;-83
2023/12/15 08:24:48;;;;;;;9.67;8.67;;;5.40;99.90;;;;;;5016884;28;20444;-83
2023/12/15 08:27:16;;;;;;;8.93;8.03;;;5.40;99.90;;;;;;5017926;28;20479;-81
2023/12/15 08:29:43;;;;;;;10.17;8.60;;;5.40;99.90;;;;;;5016679;28;20467;-81
2023/12/15 08:32:09;;;;;;;9.80;8.03;;;5.30;99.90;;;;;;5017552;28;20447;-80
2023/12/15 08:34:36;;;;;;;10.13;8.90;;;5.30;99.90;;;;;;5019956;28;20447;-83
2023/12/15 08:37:03;;;;;;;13.10;10.60;;;5.30;99.90;;;;;;5018063;28;20502;-81
2023/12/15 08:39:31;;;;;;;9.63;8.63;;;5.30;99.90;;;;;;5016482;28;20944;-82
2023/12/15 08:41:58;;;;;;;10.77;9.00;;;5.30;99.90;;;;;;5015888;28;20546;-82
2023/12/15 08:44:24;;;;;;;11.70;9.60;;;5.40;99.90;;;;;;5015260;28;20509;-79
2023/12/15 08:46:51;;;;;;;10.50;9.20;;;5.40;99.90;;;;;;5016315;28;20451;-79
2023/12/15 08:49:18;;;;;;;10.10;8.80;;;5.50;99.90;;;;;;5015907;28;20450;-81
2023/12/15 08:51:44;;;;;;;12.30;10.13;;;5.50;99.90;;;;;;5016503;28;20817;-82
2023/12/15 08:54:11;;;;;;;10.80;9.70;;;5.50;99.90;;;;;;5019129;28;20439;-79
2023/12/15 08:56:39;;;;;;;11.50;9.50;;;5.60;99.90;;;;;;5019473;28;20455;-80
2023/12/15 08:59:06;;;;;;;11.90;10.03;;;5.60;99.90;;;;;;5020120;28;20439;-80
2023/12/15 09:01:33;;;;;;;11.47;9.57;;;5.60;99.90;;;;;;5018147;28;20459;-81
2023/12/15 09:04:00;;;;;;;11.27;9.67;;;5.60;99.90;;;;;;5021310;28;20443;-80
2023/12/15 09:06:27;;;;;;;10.23;9.17;;;5.70;99.90;;;;;;5021063;28;20474;-82
2023/12/15 09:08:53;;;;;;;10.43;9.40;;;5.60;99.90;;;;;;5023347;28;20475;-81
2023/12/15 09:11:20;;;;;;;10.07;8.97;;;5.70;99.90;;;;;;5019597;28;21043;-79
2023/12/15 09:13:48;;;;;;;10.20;9.30;;;5.70;99.90;;;;;;5020390;28;20959;-80
2023/12/15 09:16:15;;;;;;;10.90;9.77;;;5.70;99.90;;;;;;5021022;28;20450;-80
2023/12/15 09:18:41;;;;;;;12.73;9.87;;;5.70;99.90;;;;;;5019893;28;20443;-80
2023/12/15 09:21:08;;;;;;;12.13;9.23;;;5.80;99.90;;;;;;5019403;28;20998;-80
2023/12/15 09:23:35;;;;;;;10.20;9.10;;;5.80;99.90;;;;;;5020328;28;20447;-80
2023/12/15 09:26:01;;;;;;;14.53;9.80;;;5.80;99.90;;;;;;5019892;28;20529;-79
2023/12/15 09:28:28;;;;;;;10.33;8.80;;;5.90;99.90;;;;;;5019034;28;20475;-81
2023/12/15 09:30:56;;;;;;;11.87;9.80;;;5.80;99.90;;;;;;5018099;28;20471;-81
2023/12/15 09:33:23;;;;;;;10.70;9.60;;;5.90;99.90;;;;;;5019224;28;20533;-79
2023/12/15 09:35:53;;;;;;;11.50;10.30;;;5.90;99.90;;;;;;5018896;28;20451;-79
2023/12/15 09:38:20;;;;;;;12.27;9.80;;;6.00;99.90;;;;;;5019977;28;20458;-79
2023/12/15 09:40:47;;;;;;;11.17;10.00;;;6.00;99.90;;;;;;5020670;28;20455;-80
2023/12/15 09:43:14;;;;;;;12.87;10.03;;;6.10;99.90;;;;;;5019879;28;20448;-81
2023/12/15 09:45:41;;;;;;;9.83;8.93;;;6.10;99.90;;;;;;5020197;28;20459;-80
2023/12/15 09:48:11;;;;;;;12.17;9.70;;;6.10;99.90;;;;;;5020498;28;20483;-80
2023/12/15 09:50:40;;;;;;;12.20;9.50;;;6.20;99.90;;;;;;5020625;28;20482;-80
2023/12/15 09:53:08;;;;;;;10.00;8.77;;;6.20;99.90;;;;;;5018922;28;20444;-82
2023/12/15 09:55:35;;;;;;;10.77;9.53;;;6.30;99.90;;;;;;5019850;28;20443;-81
2023/12/15 09:58:02;;;;;;;9.90;8.77;;;6.30;99.90;;;;;;5019441;28;20440;-80
2023/12/15 10:00:31;;;;;;;10.03;9.03;;;6.40;99.90;;;;;;5019452;28;20703;-80
2023/12/15 10:02:58;;;;;;;10.33;9.27;;;6.40;99.90;;;;;;5021893;28;20449;-82
2023/12/15 10:05:27;;;;;;;11.63;10.23;;;6.40;99.90;;;;;;5027176;28;20454;-79
2023/12/15 10:07:54;;;;;;;10.30;9.30;;;6.40;99.90;;;;;;5026833;28;20456;-79
2023/12/15 10:10:23;;;;;;;10.43;8.80;;;6.50;99.90;;;;;;5026276;28;20467;-80
2023/12/15 10:12:50;;;;;;;10.77;9.63;;;6.50;99.90;;;;;;5027067;28;20444;-80
2023/12/15 10:15:17;;;;;;;10.90;9.10;;;6.60;99.90;;;;;;5024972;28;20467;-81
2023/12/15 10:17:44;;;;;;;12.10;10.17;;;6.70;99.90;;;;;;5023743;28;20460;-82
2023/12/15 10:20:12;;;;;;;10.63;8.97;;;6.80;99.90;;;;;;5022641;28;21008;-80
2023/12/15 10:22:40;;;;;;;10.60;9.20;;;7.00;99.90;;;;;;5021314;28;20439;-80
2023/12/15 10:25:16;;;;;;;10.17;9.10;;;7.10;99.90;;;;;;5022703;28;20953;-80
2023/12/15 10:27:43;;;;;;;11.57;9.60;;;7.20;99.90;;;;;;5021697;28;20489;-78
2023/12/15 10:30:11;;;;;;;10.90;9.20;;;7.10;99.90;;;;;;5021274;28;20463;-81
2023/12/15 10:32:38;;;;;;;10.67;9.30;;;7.10;99.90;;;;;;5021184;28;20447;-81
2023/12/15 10:35:07;;;;;;;10.60;9.13;;;7.20;99.90;;;;;;5023025;28;20567;-82
2023/12/15 10:37:34;;;;;;;12.03;9.30;;;7.40;99.90;;;;;;5021998;28;20473;-82
2023/12/15 10:40:03;;;;;;;11.73;9.60;;;7.40;99.90;;;;;;5021810;28;20456;-81
2023/12/15 10:42:30;;;;;;;9.07;8.27;;;7.40;99.90;;;;;;5022230;28;20444;-81
2023/12/15 10:44:59;;;;;;;9.40;8.40;;;7.40;99.90;;;;;;5024307;28;20462;-79
2023/12/15 10:47:26;;;;;;;9.20;8.00;;;7.40;99.90;;;;;;5022489;28;20856;-81
2023/12/15 10:49:53;;;;;;;10.67;9.57;;;7.40;99.90;;;;;;5023188;28;20495;-81
2023/12/15 10:52:21;;;;;;;10.23;9.17;;;7.50;99.90;;;;;;5022776;28;20452;-81
2023/12/15 10:54:49;;;;;;;10.53;9.23;;;7.50;99.90;;;;;;5022818;28;20435;-82
2023/12/15 10:57:17;;;;;;;9.37;8.37;;;7.50;99.90;;;;;;5034519;28;20565;-79
2023/12/15 10:59:45;;;;;;;9.47;8.57;;;7.50;99.90;;;;;;5030637;28;20477;-80
2023/12/15 11:02:14;;;;;;;10.03;8.83;;;7.60;99.90;;;;;;5023922;28;20510;-81
2023/12/15 11:04:41;;;;;;;9.70;8.90;;;7.60;99.90;;;;;;5026661;28;20467;-80
2023/12/15 11:07:09;;;;;;;9.27;8.33;;;7.60;99.90;;;;;;5025320;28;20490;-81
2023/12/15 11:09:36;;;;;;;9.50;8.50;;;7.60;99.90;;;;;;5022396;28;20488;-79
2023/12/15 11:12:29;;;;;;;9.13;8.33;;;7.60;99.90;;;;;;5020463;28;20448;-82
2023/12/15 11:15:03;;;;;;;7.40;6.40;;;7.60;99.90;;;;;;5024016;28;20446;-81
2023/12/15 11:17:32;;;;;;;6.93;6.27;;;7.60;99.90;;;;;;5018824;28;20431;-82
2023/12/15 11:20:06;;;;;;;6.50;5.90;;;7.60;99.90;;;;;;5019915;28;20472;-82
2023/12/15 11:22:41;;;;;;;8.10;6.30;;;7.70;99.90;;;;;;5021487;28;20441;-79
2023/12/15 11:25:08;;;;;;;6.70;6.00;;;7.70;99.90;;;;;;5035664;28;20443;-78
2023/12/15 11:27:58;;;;;;;7.90;6.30;;;7.80;99.90;;;;;;5035503;28;20452;-80
2023/12/15 11:30:29;;;;;;;6.57;6.00;;;7.80;99.90;;;;;;5036699;28;20452;-79
2023/12/15 11:32:56;;;;;;;6.40;5.87;;;7.80;99.90;;;;;;5037319;28;20435;-79
2023/12/15 11:35:28;;;;;;;7.00;6.37;;;7.80;99.90;;;;;;5027706;28;20463;-80
2023/12/15 11:37:57;;;;;;;6.53;6.03;;;7.80;99.90;;;;;;5021971;28;20440;-81
2023/12/15 11:40:23;;;;;;;6.70;6.07;;;7.80;99.90;;;;;;5022379;28;20473;-80
2023/12/15 11:42:52;;;;;;;6.77;6.17;;;7.90;99.90;;;;;;5021963;28;20468;-79
2023/12/15 11:45:19;;;;;;;6.37;5.77;;;7.90;99.90;;;;;;5021547;28;20443;-79
2023/12/15 11:47:45;;;;;;;7.50;5.47;;;7.90;99.90;;;;;;5020006;28;20455;-82
2023/12/15 11:50:14;;;;;;;9.83;5.60;;;7.90;99.90;;;;;;5023522;28;20460;-80
2023/12/15 11:52:41;;;;;;;5.73;5.27;;;7.80;99.90;;;;;;5024708;28;20459;-80
2023/12/15 11:55:08;;;;;;;6.20;5.60;;;7.80;99.90;;;;;;5023747;28;20452;-81
2023/12/15 11:57:36;;;;;;;6.43;5.93;;;7.80;99.90;;;;;;5024635;28;20451;-79
2023/12/15 12:00:06;;;;;;;6.53;5.83;;;7.80;99.90;;;;;;5023765;28;20474;-81
2023/12/15 12:02:34;;;;;;;6.07;5.50;;;7.80;99.90;;;;;;5023727;28;20451;-82
2023/12/15 12:05:00;;;;;;;5.83;5.30;;;7.90;99.90;;;;;;5023878;28;20435;-81
2023/12/15 12:07:28;;;;;;;6.10;5.20;;;8.00;99.90;;;;;;5023482;28;20458;-81
2023/12/15 12:09:54;;;;;;;6.43;5.53;;;7.80;99.90;;;;;;5023218;28;20544;-81
2023/12/15 12:12:21;;;;;;;5.03;4.63;;;7.70;99.90;;;;;;5024568;28;20475;-79
2023/12/15 12:14:48;;;;;;;4.60;4.20;;;7.80;99.90;;;;;;5024111;28;20448;-80
2023/12/15 12:17:16;;;;;;;6.40;5.80;;;7.80;99.90;;;;;;5024377;28;20484;-80
2023/12/15 12:19:43;;;;;;;5.87;5.30;;;7.80;99.90;;;;;;5025339;28;20470;-80
2023/12/15 12:22:11;;;;;;;4.83;4.43;;;7.80;99.90;;;;;;5021862;28;20456;-80
2023/12/15 12:24:38;;;;;;;4.33;4.03;;;7.80;99.90;;;;;;5018197;28;20436;-81
2023/12/15 12:27:07;;;;;;;5.63;5.13;;;7.70;99.90;;;;;;5018076;28;20459;-83
2023/12/15 12:29:34;;;;;;;5.73;5.13;;;7.70;99.90;;;;;;5022882;28;20481;-79
2023/12/15 12:32:01;;;;;;;5.10;4.70;;;7.70;99.90;;;;;;5025600;28;20482;-82
2023/12/15 12:34:29;;;;;;;4.67;4.27;;;7.70;99.90;;;;;;5026086;28;20445;-81
2023/12/15 12:37:02;;;;;;;5.40;5.00;;;7.60;99.90;;;;;;5024784;28;20507;-79
2023/12/15 12:39:29;;;;;;;5.27;4.87;;;7.70;99.90;;;;;;5024320;28;20921;-77
2023/12/15 12:41:55;;;;;;;6.13;5.53;;;7.70;99.90;;;;;;5025131;28;20510;-82
2023/12/15 12:44:22;;;;;;;6.37;5.83;;;7.80;99.90;;;;;;5024393;28;20454;-80
2023/12/15 12:46:49;;;;;;;5.03;4.63;;;7.90;99.90;;;;;;5025352;28;20444;-82
2023/12/15 12:49:16;;;;;;;5.87;4.87;;;7.90;99.90;;;;;;5025851;28;20692;-79
2023/12/15 12:51:44;;;;;;;6.10;5.20;;;7.90;99.90;;;;;;5025169;28;20439;-79
2023/12/15 12:54:10;;;;;;;5.43;4.93;;;7.90;99.90;;;;;;5024138;28;20459;-81
2023/12/15 12:56:38;;;;;;;5.70;5.20;;;7.90;99.90;;;;;;5023417;28;20793;-78
2023/12/15 12:59:05;;;;;;;5.37;4.83;;;7.90;99.90;;;;;;5024265;28;20468;-82
2023/12/15 13:01:31;;;;;;;5.07;4.60;;;7.90;99.90;;;;;;5023808;28;20471;-80
2023/12/15 13:03:58;;;;;;;5.23;4.83;;;7.90;99.90;;;;;;5024912;28;20543;-80
2023/12/15 13:06:26;;;;;;;5.80;5.20;;;7.90;99.90;;;;;;5022867;28;20452;-82
2023/12/15 13:08:54;;;;;;;7.20;4.90;;;7.90;99.90;;;;;;5023064;28;20494;-80
2023/12/15 13:11:21;;;;;;;4.83;4.43;;;7.90;99.90;;;;;;5022516;28;20475;-82
2023/12/15 13:13:48;;;;;;;4.83;4.40;;;7.90;99.90;;;;;;5021519;28;20454;-82
2023/12/15 13:16:15;;;;;;;5.43;4.93;;;7.90;99.90;;;;;;5021970;28;20455;-80
2023/12/15 13:18:42;;;;;;;5.20;4.70;;;8.20;99.90;;;;;;5021355;28;20474;-79
2023/12/15 13:21:09;;;;;;;4.10;3.80;;;7.90;99.90;;;;;;5020057;28;20501;-79
2023/12/15 13:23:36;;;;;;;5.70;4.30;;;8.00;99.90;;;;;;5020282;28;20482;-82
2023/12/15 13:26:05;;;;;;;6.07;3.33;;;8.00;99.90;;;;;;5021944;28;20470;-81
2023/12/15 13:28:35;;;;;;;3.77;3.20;;;8.00;99.90;;;;;;5021706;28;20562;-83
2023/12/15 13:31:03;;;;;;;3.80;3.33;;;7.90;99.90;;;;;;5021005;28;20471;-81
2023/12/15 13:33:30;;;;;;;3.70;3.40;;;7.90;99.90;;;;;;5022515;28;20949;-81
2023/12/15 13:35:57;;;;;;;3.07;2.83;;;7.90;99.90;;;;;;5021402;28;20813;-81
2023/12/15 13:38:26;;;;;;;3.83;3.10;;;7.80;99.90;;;;;;5024806;28;20457;-80
2023/12/15 13:40:54;;;;;;;3.67;3.30;;;7.80;99.90;;;;;;5024801;28;20471;-78
2023/12/15 13:43:22;;;;;;;3.10;2.90;;;7.90;99.90;;;;;;5023807;28;20445;-80
2023/12/15 13:45:49;;;;;;;4.00;2.90;;;7.90;99.90;;;;;;5022656;28;20446;-80
2023/12/15 13:48:15;;;;;;;3.47;3.03;;;7.80;99.90;;;;;;5024170;28;20456;-80
2023/12/15 13:50:42;;;;;;;3.10;2.80;;;7.90;99.90;;;;;;5023474;28;20832;-80
2023/12/15 13:53:09;;;;;;;3.47;2.57;;;7.90;99.90;;;;;;5022499;28;20979;-81
2023/12/15 13:55:35;;;;;;;5.63;2.63;;;8.00;99.90;;;;;;5022630;28;20827;-80
2023/12/15 13:58:02;;;;;;;3.33;3.03;;;7.90;99.90;;;;;;5022471;28;20480;-80
2023/12/15 14:00:30;;;;;;;5.07;3.10;;;7.80;99.90;;;;;;5022810;28;20473;-80
2023/12/15 14:02:57;;;;;;;2.50;2.30;;;7.70;99.90;;;;;;5022278;28;20440;-82
2023/12/15 14:05:23;;;;;;;2.83;2.63;;;7.60;99.90;;;;;;5021540;28;20451;-80
2023/12/15 14:07:50;;;;;;;2.90;2.70;;;7.60;99.90;;;;;;5022471;28;20431;-80
2023/12/15 14:10:18;;;;;;;2.90;2.30;;;7.60;99.90;;;;;;5021441;28;20488;-80
2023/12/15 14:12:46;;;;;;;2.30;2.10;;;7.70;99.90;;;;;;5022690;28;20453;-82
2023/12/15 14:15:13;;;;;;;2.33;2.03;;;7.70;99.90;;;;;;5022766;28;20530;-82
2023/12/15 14:17:41;;;;;;;2.33;2.20;;;7.70;99.90;;;;;;5024852;28;20442;-81
2023/12/15 14:20:09;;;;;;;2.40;2.30;;;7.70;99.90;;;;;;5025363;28;20463;-80
2023/12/15 14:22:36;;;;;;;4.20;2.53;;;7.70;99.90;;;;;;5025202;28;20440;-79
2023/12/15 14:25:05;;;;;;;3.00;2.47;;;7.70;99.90;;;;;;5024089;28;20486;-81
2023/12/15 14:27:32;;;;;;;2.97;2.67;;;7.70;99.90;;;;;;5023737;28;20457;-78
2023/12/15 14:29:59;;;;;;;2.93;2.53;;;7.70;99.90;;;;;;5024682;28;20516;-80
2023/12/15 14:32:26;;;;;;;2.83;2.63;;;7.60;99.90;;;;;;5022501;28;20484;-79
2023/12/15 14:34:54;;;;;;;2.70;2.50;;;7.60;99.90;;;;;;5021546;28;20451;-80
2023/12/15 14:37:21;;;;;;;2.80;2.60;;;7.60;99.90;;;;;;5020583;28;20445;-81
2023/12/15 14:39:48;;;;;;;2.50;2.30;;;7.70;99.90;;;;;;5019675;28;20476;-80
2023/12/15 14:42:15;;;;;;;1.90;1.80;;;7.70;99.90;;;;;;5020530;28;20831;-80
2023/12/15 14:44:41;;;;;;;2.43;2.33;;;7.70;99.90;;;;;;5022683;28;20447;-81
2023/12/15 14:47:09;;;;;;;2.33;2.13;;;7.60;99.90;;;;;;5026750;28;20463;-78
2023/12/15 14:49:35;;;;;;;3.60;2.23;;;7.90;99.90;;;;;;5030611;28;20484;-81
2023/12/15 14:52:04;;;;;;;2.20;2.10;;;7.60;99.90;;;;;;5029292;28;20460;-79
2023/12/15 14:54:33;;;;;;;2.53;2.30;;;7.60;99.90;;;;;;5027670;28;20444;-82
2023/12/15 14:57:00;;;;;;;3.13;2.40;;;7.60;99.90;;;;;;5026141;28;20450;-82
2023/12/15 14:59:26;;;;;;;4.40;3.80;;;7.50;99.90;;;;;;5024241;28;20439;-79
2023/12/15 15:01:55;;;;;;;3.80;3.00;;;7.50;99.90;;;;;;5025644;28;20451;-79
2023/12/15 15:04:23;;;;;;;2.63;2.40;;;7.50;99.90;;;;;;5025793;28;20517;-79
2023/12/15 15:06:50;;;;;;;4.87;2.70;;;7.50;99.90;;;;;;5025079;28;20465;-80
2023/12/15 15:09:19;;;;;;;2.33;2.13;;;7.50;99.90;;;;;;5028821;28;20896;-81
2023/12/15 15:11:46;;;;;;;2.93;2.40;;;7.50;99.90;;;;;;5026547;28;20464;-81
2023/12/15 15:14:13;;;;;;;2.77;2.57;;;7.80;99.90;;;;;;5026034;28;20517;-80
2023/12/15 15:16:40;;;;;;;2.60;2.40;;;7.50;99.90;;;;;;5025827;28;20449;-81